Time;durP1;ratioP1;P1;durP2;ratioP2;P2;SDS_P1;SDS_P2;PMS_P1;PMS_P2;Temp;Humidity;BMP_temperature;BMP_pressure;BME280_temperature;BME280_humidity;BME280_pressure;Samples;Min_cycle;Max_cycle;Signal;HPM_P1;HPM_P2
2022/11/25 00:02:21;;;;;;;16.38;2.78;;;;;;;9.97;89.75;100963.72;5064085;28;20047;-46
2022/11/25 00:04:47;;;;;;;14.00;2.75;;;;;;;9.97;90.02;100968.84;5062110;28;20028;-43
2022/11/25 00:07:12;;;;;;;12.40;2.65;;;;;;;9.96;90.72;100961.97;5060894;28;20708;-45
2022/11/25 00:09:37;;;;;;;14.77;2.70;;;;;;;9.97;90.33;100960.28;5064114;28;20036;-46
2022/11/25 00:12:03;;;;;;;16.92;2.88;;;;;;;10.00;89.98;100961.22;5062980;28;20040;-49
2022/11/25 00:14:28;;;;;;;14.43;2.33;;;;;;;10.01;89.73;100950.16;5062915;28;21069;-47
2022/11/25 00:16:54;;;;;;;15.02;2.88;;;;;;;9.99;90.02;100949.22;5063384;28;20115;-46
2022/11/25 00:19:19;;;;;;;14.70;2.45;;;;;;;10.04;89.74;100939.97;5061207;28;20087;-44
2022/11/25 00:21:44;;;;;;;15.40;2.60;;;;;;;10.02;89.86;100946.75;5061472;28;20410;-47
2022/11/25 00:24:15;;;;;;;13.70;2.97;;;;;;;10.02;89.99;100933.91;5062031;28;20499;-47
2022/11/25 00:26:41;;;;;;;17.95;2.55;;;;;;;10.02;89.98;100943.31;5059770;28;20098;-45
2022/11/25 00:29:08;;;;;;;14.95;2.65;;;;;;;10.05;89.90;100933.13;5061428;28;20497;-45
2022/11/25 00:31:37;;;;;;;14.82;2.55;;;;;;;10.04;89.76;100932.25;5061721;28;20458;-44
2022/11/25 00:34:02;;;;;;;18.67;3.10;;;;;;;10.06;89.89;100940.88;5065265;28;20028;-45
2022/11/25 00:36:30;;;;;;;14.05;2.72;;;;;;;10.07;89.91;100937.50;5064196;28;20032;-48
2022/11/25 00:39:04;;;;;;;16.27;2.72;;;;;;;10.07;89.60;100934.03;5063169;28;20035;-47
2022/11/25 00:44:38;;;;;;;15.15;2.45;;;;;;;10.10;89.64;100934.16;5064348;28;20052;-46
2022/11/25 00:47:14;;;;;;;15.93;2.80;;;;;;;10.08;89.71;100931.53;5063169;28;20029;-46
2022/11/25 00:49:42;;;;;;;16.30;2.53;;;;;;;10.09;89.93;100933.28;5063348;28;20052;-47
2022/11/25 00:52:09;;;;;;;17.35;2.80;;;;;;;10.06;89.99;100925.47;5063560;28;20025;-47
2022/11/25 00:54:34;;;;;;;16.60;2.67;;;;;;;10.05;90.20;100936.56;5063035;28;20024;-44
2022/11/25 00:57:00;;;;;;;17.00;2.65;;;;;;;10.09;89.76;100933.28;5064872;28;20035;-47
2022/11/25 00:59:25;;;;;;;16.52;2.63;;;;;;;10.08;89.89;100931.53;5064668;28;20020;-45
2022/11/25 01:01:51;;;;;;;16.15;3.05;;;;;;;10.09;89.79;100933.28;5065057;28;20461;-46
2022/11/25 01:04:16;;;;;;;17.77;2.92;;;;;;;10.10;89.55;100934.16;5063511;28;20068;-46
2022/11/25 01:06:42;;;;;;;17.75;2.88;;;;;;;10.11;89.63;100941.88;5063017;28;20505;-47
2022/11/25 01:09:10;;;;;;;13.63;2.67;;;;;;;10.11;89.55;100939.31;5062192;28;20028;-46
2022/11/25 01:11:35;;;;;;;13.10;2.40;;;;;;;10.12;89.57;100933.34;5064364;28;20052;-45
2022/11/25 01:14:01;;;;;;;17.67;2.80;;;;;;;10.12;89.78;100933.34;5063807;28;20157;-43
2022/11/25 01:16:26;;;;;;;20.17;2.67;;;;;;;10.13;90.01;100931.66;5065146;28;20094;-45
2022/11/25 01:18:52;;;;;;;16.88;2.83;;;;;;;10.14;89.76;100936.00;5063310;28;20532;-46
2022/11/25 01:21:20;;;;;;;19.83;3.20;;;;;;;10.12;89.92;100937.63;5062169;28;20067;-46
2022/11/25 01:23:47;;;;;;;13.48;2.65;;;;;;;10.14;89.78;100939.44;5060582;28;20032;-46
2022/11/25 01:26:15;;;;;;;17.50;2.63;;;;;;;10.14;89.65;100936.88;5061630;28;20562;-45
2022/11/25 01:28:41;;;;;;;16.35;3.00;;;;;;;10.15;90.09;100941.16;5062518;28;20028;-44
2022/11/25 01:31:14;;;;;;;16.83;2.65;;;;;;;10.17;90.03;100941.22;5063072;28;20028;-48
2022/11/25 01:33:40;;;;;;;13.50;2.47;;;;;;;10.16;90.05;100944.59;5063415;28;20036;-46
2022/11/25 01:36:08;;;;;;;12.82;2.58;;;;;;;10.17;90.25;100947.22;5061282;28;20040;-46
2022/11/25 01:38:34;;;;;;;16.20;3.05;;;;;;;10.15;90.31;100948.88;5062246;28;20519;-46
2022/11/25 01:41:01;;;;;;;16.08;2.58;;;;;;;10.16;90.27;100963.47;5058200;28;20020;-48
2022/11/25 01:43:27;;;;;;;18.38;2.47;;;;;;;10.18;90.19;100954.09;5063745;28;20021;-48
2022/11/25 01:46:06;;;;;;;17.88;2.60;;;;;;;10.21;90.39;100963.63;5062657;28;20036;-47
2022/11/25 01:48:48;;;;;;;14.32;3.15;;;;;;;10.23;90.33;100961.09;5063280;28;20567;-46
2022/11/25 01:51:41;;;;;;;12.85;2.83;;;;;;;10.25;90.07;100978.31;5061563;28;20476;-45
2022/11/25 01:54:10;;;;;;;11.77;2.33;;;;;;;10.21;90.31;100974.75;5060878;28;21004;-46
2022/11/25 01:56:44;;;;;;;14.27;2.72;;;;;;;10.25;90.18;100972.31;5059739;28;20112;-43
2022/11/25 01:59:09;;;;;;;14.93;2.72;;;;;;;10.23;90.51;100971.38;5062001;28;20032;-46
2022/11/25 02:01:35;;;;;;;17.13;2.80;;;;;;;10.24;90.11;100980.84;5062439;28;20039;-47
2022/11/25 02:04:01;;;;;;;14.02;2.42;;;;;;;10.24;90.28;100980.84;5060893;28;20082;-44
2022/11/25 02:06:38;;;;;;;16.05;2.55;;;;;;;10.27;90.39;100980.97;5059867;28;20082;-47
2022/11/25 02:09:06;;;;;;;16.80;3.00;;;;;;;10.25;90.50;100983.47;5061363;28;20082;-45
2022/11/25 02:11:33;;;;;;;15.45;2.90;;;;;;;10.27;90.56;100994.69;5061389;28;20032;-45
2022/11/25 02:13:59;;;;;;;13.50;2.20;;;;;;;10.26;90.30;100990.38;5060010;28;20084;-46
2022/11/25 02:16:24;;;;;;;14.02;2.67;;;;;;;10.29;90.43;101002.44;5060988;28;20563;-43
2022/11/25 02:18:50;;;;;;;17.50;3.22;;;;;;;10.26;91.40;100995.50;5060063;28;20111;-46
2022/11/25 02:21:21;;;;;;;13.68;2.20;;;;;;;10.30;91.60;101004.16;5062244;28;20129;-47
2022/11/25 02:24:03;;;;;;;14.95;3.00;;;;;;;10.31;91.75;101011.06;5061783;28;20051;-47
2022/11/25 02:26:29;;;;;;;14.73;2.60;;;;;;;10.28;91.75;101004.13;5062896;28;20024;-48
2022/11/25 02:28:55;;;;;;;15.82;2.83;;;;;;;10.27;92.11;101006.66;5062148;28;20583;-47
2022/11/25 02:31:22;;;;;;;11.57;2.58;;;;;;;10.28;92.05;101016.13;5059752;28;20121;-47
2022/11/25 02:33:48;;;;;;;14.40;2.90;;;;;;;10.27;92.25;101011.81;5063019;28;20047;-45
2022/11/25 02:36:16;;;;;;;18.73;2.85;;;;;;;10.26;92.44;101013.50;5062953;28;20396;-47
2022/11/25 02:38:46;;;;;;;15.70;2.57;;;;;;;10.29;92.64;101018.72;5061696;28;20146;-47
2022/11/25 02:41:17;;;;;;;13.95;2.53;;;;;;;10.25;93.19;101013.44;5059575;28;20024;-48
2022/11/25 02:43:43;;;;;;;13.02;2.47;;;;;;;10.26;92.84;101012.63;5060047;28;20024;-48
2022/11/25 02:46:13;;;;;;;16.35;2.50;;;;;;;10.26;93.32;101025.47;5061253;28;20064;-47
2022/11/25 02:48:40;;;;;;;11.82;2.08;;;;;;;10.25;93.19;101016.88;5060830;28;20522;-48
2022/11/25 02:51:08;;;;;;;12.98;2.25;;;;;;;10.25;93.36;101024.56;5059479;28;20700;-46
2022/11/25 02:53:34;;;;;;;13.55;2.17;;;;;;;10.22;93.25;101024.47;5062752;28;20048;-47
2022/11/25 02:55:59;;;;;;;9.82;2.00;;;;;;;10.25;93.19;101029.72;5059794;28;20461;-46
2022/11/25 02:58:25;;;;;;;10.32;2.28;;;;;;;10.20;94.02;101011.56;5062373;28;20039;-45
2022/11/25 03:00:50;;;;;;;13.73;2.28;;;;;;;10.22;93.98;101009.03;5061489;28;20032;-48
2022/11/25 03:03:16;;;;;;;11.60;2.05;;;;;;;10.22;93.78;101006.47;5059995;28;20396;-45
2022/11/25 03:05:41;;;;;;;13.07;2.00;;;;;;;10.22;93.76;100993.63;5062002;28;20055;-48
2022/11/25 03:08:08;;;;;;;15.82;2.38;;;;;;;10.24;93.52;100950.00;5061272;28;20032;-47
2022/11/25 03:10:34;;;;;;;9.25;1.80;;;;;;;10.20;93.75;100938.75;5060961;28;20056;-45
2022/11/25 03:12:59;;;;;;;9.88;2.10;;;;;;;10.15;94.13;100950.56;5059466;28;20389;-46
2022/11/25 03:15:25;;;;;;;11.80;2.13;;;;;;;10.13;94.61;100972.75;5061652;28;20420;-46
2022/11/25 03:17:51;;;;;;;9.30;1.85;;;;;;;10.15;94.38;100982.28;5062925;28;20044;-45
2022/11/25 03:20:16;;;;;;;10.98;1.75;;;;;;;10.17;94.56;100993.47;5060231;28;22305;-44
2022/11/25 03:22:42;;;;;;;12.10;1.90;;;;;;;10.21;94.47;101003.03;5061344;28;20085;-46
2022/11/25 03:25:09;;;;;;;7.55;1.75;;;;;;;10.15;94.69;101005.41;5061343;28;20378;-45
2022/11/25 03:27:36;;;;;;;12.25;1.83;;;;;;;10.13;94.53;101017.34;5061648;28;20042;-47
2022/11/25 03:30:02;;;;;;;10.80;1.63;;;;;;;10.15;94.47;101010.53;5061131;28;20029;-46
2022/11/25 03:32:27;;;;;;;8.73;2.05;;;;;;;10.17;94.36;100997.75;5060540;28;20127;-47
2022/11/25 03:34:53;;;;;;;10.65;2.03;;;;;;;10.13;94.10;101001.03;5061094;28;20155;-46
2022/11/25 03:37:18;;;;;;;10.23;2.00;;;;;;;10.16;94.23;101006.28;5059076;28;20549;-48
2022/11/25 03:39:44;;;;;;;11.18;2.03;;;;;;;10.13;94.29;101024.16;5061848;28;20021;-44
2022/11/25 03:42:09;;;;;;;8.00;1.63;;;;;;;10.10;94.61;101027.50;5060357;28;20393;-45
2022/11/25 03:44:35;;;;;;;12.80;2.08;;;;;;;10.07;94.59;101029.09;5053705;28;20027;-47
2022/11/25 03:47:00;;;;;;;6.78;1.73;;;;;;;10.06;94.88;101035.06;5058377;28;20045;-46
2022/11/25 03:49:25;;;;;;;9.93;1.90;;;;;;;10.06;94.78;101025.66;5058879;28;20161;-47
2022/11/25 03:51:51;;;;;;;8.95;1.70;;;;;;;10.05;94.93;101039.31;5061110;28;20036;-47
2022/11/25 03:54:16;;;;;;;10.10;1.77;;;;;;;10.04;95.04;101041.84;5059669;28;20024;-44
2022/11/25 03:56:41;;;;;;;9.88;1.58;;;;;;;10.06;94.99;101030.78;5060157;28;20064;-45
2022/11/25 03:59:07;;;;;;;10.23;2.08;;;;;;;10.02;94.83;101031.53;5060813;28;20393;-45
2022/11/25 04:01:32;;;;;;;8.20;1.80;;;;;;;10.00;95.09;101032.28;5062322;28;20076;-45
2022/11/25 04:03:58;;;;;;;7.50;1.75;;;;;;;9.99;95.00;101043.41;5060409;28;20067;-46
2022/11/25 04:06:23;;;;;;;9.93;1.92;;;;;;;9.99;94.81;101044.25;5061433;28;20419;-45
2022/11/25 04:08:49;;;;;;;14.05;1.85;;;;;;;9.95;94.63;101052.72;5061196;28;20036;-46
2022/11/25 04:11:15;;;;;;;10.27;1.50;;;;;;;9.97;94.69;101050.19;5060416;28;20027;-46
2022/11/25 04:13:40;;;;;;;9.93;1.75;;;;;;;9.98;94.21;101057.94;5061810;28;20044;-46
2022/11/25 04:16:14;;;;;;;8.00;1.50;;;;;;;9.98;94.09;101063.06;5056354;28;20456;-46
2022/11/25 04:18:40;;;;;;;8.68;1.58;;;;;;;9.95;94.30;101063.00;5061644;28;20040;-46
2022/11/25 04:21:05;;;;;;;8.07;2.13;;;;;;;9.90;93.86;101067.09;5065058;28;20370;-47
2022/11/25 04:23:30;;;;;;;7.13;1.70;;;;;;;9.90;94.21;101073.09;5063824;28;21619;-45
2022/11/25 04:25:56;;;;;;;9.02;1.40;;;;;;;9.90;94.02;101074.78;5063909;28;20536;-46
2022/11/25 04:28:21;;;;;;;8.35;1.48;;;;;;;9.87;94.17;101080.69;5065027;28;20029;-47
2022/11/25 04:30:46;;;;;;;7.65;1.23;;;;;;;9.86;94.17;101083.22;5065022;28;20028;-46
2022/11/25 04:33:12;;;;;;;6.65;1.48;;;;;;;9.87;94.28;101100.34;5064340;28;20029;-45
2022/11/25 04:35:37;;;;;;;4.88;1.10;;;;;;;9.88;93.92;101104.66;5063830;28;20104;-45
2022/11/25 04:38:02;;;;;;;6.75;1.30;;;;;;;9.85;93.92;101108.03;5063949;28;20042;-48
2022/11/25 04:40:28;;;;;;;4.68;1.10;;;;;;;9.85;93.61;101102.88;5062447;28;20029;-47
2022/11/25 04:42:53;;;;;;;6.18;1.10;;;;;;;9.84;93.70;101105.41;5062825;28;20029;-45
2022/11/25 04:45:18;;;;;;;5.05;0.90;;;;;;;9.83;93.43;101108.81;5062630;28;20086;-47
2022/11/25 04:47:44;;;;;;;5.72;1.17;;;;;;;9.79;92.94;101107.81;5063528;28;20071;-44
2022/11/25 04:50:15;;;;;;;3.67;0.85;;;;;;;9.80;92.96;101113.81;5063961;28;20455;-45
2022/11/25 04:52:41;;;;;;;4.82;0.98;;;;;;;9.77;92.72;101106.88;5065870;28;20650;-47
2022/11/25 04:55:07;;;;;;;4.72;0.90;;;;;;;9.79;92.50;101112.06;5062104;28;20115;-46
2022/11/25 04:57:32;;;;;;;6.10;1.00;;;;;;;9.78;92.54;101110.31;5063762;28;20385;-47
2022/11/25 04:59:57;;;;;;;3.72;0.95;;;;;;;9.77;92.18;101113.69;5063205;28;20048;-46
2022/11/25 05:02:27;;;;;;;2.75;0.60;;;;;;;9.77;92.57;101118.81;5062824;28;20056;-45
2022/11/25 05:04:55;;;;;;;4.95;0.80;;;;;;;9.75;92.44;101130.75;5074730;28;20484;-46
2022/11/25 05:07:22;;;;;;;4.60;0.70;;;;;;;9.76;92.06;101129.91;5061620;28;20028;-45
2022/11/25 05:09:47;;;;;;;2.95;0.57;;;;;;;9.74;92.28;101129.00;5064574;28;20418;-46
2022/11/25 05:12:18;;;;;;;4.32;0.85;;;;;;;9.72;91.86;101135.78;5063796;28;20040;-46
2022/11/25 05:14:43;;;;;;;3.10;0.70;;;;;;;9.68;91.88;101133.09;5064521;28;20047;-47
2022/11/25 05:17:12;;;;;;;3.30;0.82;;;;;;;9.65;92.48;101135.56;5063500;28;20032;-47
2022/11/25 05:19:37;;;;;;;3.47;1.00;;;;;;;9.67;92.24;101136.50;5061894;28;20131;-49
2022/11/25 05:22:03;;;;;;;3.83;0.70;;;;;;;9.64;92.19;101128.66;5063175;28;20123;-46
2022/11/25 05:24:28;;;;;;;5.00;0.90;;;;;;;9.63;92.20;101139.75;5063603;28;20082;-45
2022/11/25 05:26:53;;;;;;;3.05;0.80;;;;;;;9.60;92.54;101131.09;5061467;28;20024;-45
2022/11/25 05:29:19;;;;;;;4.35;0.82;;;;;;;9.60;92.71;101137.09;5059768;28;20390;-45
2022/11/25 05:31:44;;;;;;;4.15;0.80;;;;;;;9.59;92.62;101145.63;5060411;28;20366;-50
2022/11/25 05:34:10;;;;;;;4.85;0.85;;;;;;;9.57;92.79;101142.09;5058807;28;20025;-47
2022/11/25 05:36:35;;;;;;;6.28;1.00;;;;;;;9.53;92.71;101144.53;5058193;28;20047;-46
2022/11/25 05:39:02;;;;;;;3.72;1.20;;;;;;;9.58;92.61;101145.53;5060193;28;20029;-46
2022/11/25 05:41:27;;;;;;;6.88;1.20;;;;;;;9.55;92.71;101148.88;5057282;28;20055;-48
2022/11/25 05:43:52;;;;;;;3.30;1.02;;;;;;;9.54;92.52;101141.13;5065954;28;20064;-48
2022/11/25 05:46:18;;;;;;;4.53;1.45;;;;;;;9.54;92.60;101146.28;5066859;28;20056;-48
2022/11/25 05:48:44;;;;;;;3.67;1.17;;;;;;;9.54;92.50;101149.72;5065226;28;20063;-47
2022/11/25 05:51:09;;;;;;;6.28;1.30;;;;;;;9.51;92.91;101162.41;5060674;28;20438;-46
2022/11/25 05:53:35;;;;;;;5.70;1.30;;;;;;;9.48;92.54;101153.75;5062044;28;20054;-45
2022/11/25 05:56:04;;;;;;;4.80;1.40;;;;;;;9.44;92.66;101155.31;5063917;28;20439;-46
2022/11/25 05:58:30;;;;;;;4.68;1.50;;;;;;;9.48;92.44;101154.63;5064033;28;20020;-45
2022/11/25 06:00:57;;;;;;;5.45;1.27;;;;;;;9.42;92.28;101162.09;5062445;28;20071;-44
2022/11/25 06:03:27;;;;;;;5.53;1.35;;;;;;;9.42;92.42;101163.78;5063310;28;20477;-44
2022/11/25 06:05:57;;;;;;;6.88;1.65;;;;;;;9.42;92.71;101164.66;5062953;28;20042;-47
2022/11/25 06:08:23;;;;;;;5.75;1.60;;;;;;;9.38;92.29;101170.47;5061382;28;20043;-44
2022/11/25 06:10:48;;;;;;;5.80;1.55;;;;;;;9.37;92.40;101173.88;5058542;28;20024;-46
2022/11/25 06:13:13;;;;;;;7.63;1.80;;;;;;;9.33;92.13;101177.13;5058556;28;20040;-46
2022/11/25 06:15:41;;;;;;;7.03;2.05;;;;;;;9.34;92.60;101184.00;5059706;28;20078;-47
2022/11/25 06:18:07;;;;;;;8.18;1.95;;;;;;;9.30;92.65;101177.91;5060446;28;20039;-44
2022/11/25 06:20:32;;;;;;;8.00;2.20;;;;;;;9.30;92.35;101170.19;5063576;28;20032;-48
2022/11/25 06:22:58;;;;;;;6.72;1.80;;;;;;;9.26;92.81;101176.03;5061973;28;20120;-46
2022/11/25 06:25:24;;;;;;;9.38;1.90;;;;;;;9.26;92.54;101181.16;5063359;28;20401;-48
2022/11/25 06:27:50;;;;;;;7.55;1.80;;;;;;;9.29;92.36;101191.56;5065043;28;20452;-48
2022/11/25 06:30:16;;;;;;;6.10;2.10;;;;;;;9.28;92.68;101194.94;5062087;28;20107;-46
2022/11/25 06:32:41;;;;;;;8.52;2.15;;;;;;;9.29;92.69;101195.81;5068447;28;20076;-45
2022/11/25 06:35:07;;;;;;;5.95;1.88;;;;;;;9.29;92.28;101200.94;5063716;28;20657;-46
2022/11/25 06:37:32;;;;;;;8.50;1.52;;;;;;;9.26;92.53;101199.13;5060602;28;20044;-46
2022/11/25 06:39:58;;;;;;;6.93;2.33;;;;;;;9.30;92.82;101202.69;5065670;28;20029;-45
2022/11/25 06:42:23;;;;;;;6.65;2.00;;;;;;;9.25;92.73;101207.63;5063911;28;20025;-47
2022/11/25 06:44:49;;;;;;;5.05;1.80;;;;;;;9.25;92.69;101209.31;5070552;28;20533;-47
2022/11/25 06:47:14;;;;;;;5.65;1.75;;;;;;;9.21;92.38;101208.31;5063767;28;20048;-47
2022/11/25 06:49:40;;;;;;;6.68;1.67;;;;;;;9.27;92.37;101208.56;5061583;28;20017;-47
2022/11/25 06:52:05;;;;;;;6.10;1.90;;;;;;;9.23;92.57;101210.97;5058719;28;20383;-45
2022/11/25 06:54:30;;;;;;;6.90;1.52;;;;;;;9.22;92.41;101209.19;5071460;28;20024;-45
2022/11/25 06:56:56;;;;;;;5.55;1.60;;;;;;;9.25;92.37;101212.75;5066391;28;20062;-44
2022/11/25 06:59:21;;;;;;;6.78;1.75;;;;;;;9.18;92.22;101207.34;5064540;28;20040;-45
2022/11/25 07:01:47;;;;;;;6.20;2.20;;;;;;;9.26;91.85;101213.63;5063073;28;20080;-46
2022/11/25 07:04:12;;;;;;;6.40;1.80;;;;;;;9.22;91.77;101219.44;5062354;28;20105;-47
2022/11/25 07:06:37;;;;;;;7.10;1.73;;;;;;;9.23;92.10;101232.38;5064765;28;20028;-50
2022/11/25 07:09:04;;;;;;;5.60;1.50;;;;;;;9.17;92.00;101236.38;5063070;28;20454;-47
2022/11/25 07:11:32;;;;;;;8.45;1.90;;;;;;;9.22;91.96;101237.41;5067289;28;20036;-44
2022/11/25 07:14:04;;;;;;;5.43;1.75;;;;;;;9.20;91.93;101242.50;5065684;28;20533;-46
2022/11/25 07:16:30;;;;;;;5.47;1.38;;;;;;;9.20;91.94;101246.75;5065669;28;20044;-45
2022/11/25 07:18:58;;;;;;;8.35;1.65;;;;;;;9.14;91.92;101247.38;5063845;28;20040;-44
2022/11/25 07:21:24;;;;;;;5.38;1.83;;;;;;;9.06;92.19;101252.22;5067875;28;20103;-44
2022/11/25 07:23:51;;;;;;;6.65;1.58;;;;;;;9.08;92.15;101258.28;5066113;28;20033;-44
2022/11/25 07:26:20;;;;;;;5.95;1.48;;;;;;;9.09;91.94;101271.97;5069190;28;20499;-45
2022/11/25 07:28:46;;;;;;;;;;;;;;;9.31;91.29;101276.28;5063361;28;20024;-46
2022/11/25 07:31:16;;;;;;;5.80;1.77;;;;;;;9.12;91.87;101278.13;5065443;28;19927;-45
2022/11/25 07:33:42;;;;;;;8.25;1.77;;;;;;;9.11;91.79;101280.63;5069243;28;20504;-45
2022/11/25 07:36:10;;;;;;;6.38;2.00;;;;;;;9.05;91.74;101278.69;5069112;28;20033;-45
2022/11/25 07:38:36;;;;;;;9.55;2.78;;;;;;;9.08;91.53;101298.44;5066650;28;20058;-43
2022/11/25 07:41:06;;;;;;;7.88;1.70;;;;;;;9.04;92.12;101294.91;5063146;28;20028;-46
2022/11/25 07:43:32;;;;;;;8.27;1.70;;;;;;;9.09;91.87;101298.50;5061724;28;20040;-46
2022/11/25 07:46:14;;;;;;;7.70;1.90;;;;;;;9.13;91.72;101313.22;5065366;28;20020;-47
2022/11/25 07:48:40;;;;;;;7.47;1.90;;;;;;;9.03;91.66;101316.22;5061367;28;20514;-46
2022/11/25 07:51:23;;;;;;;6.07;1.55;;;;;;;9.17;91.72;101323.63;5058294;28;20028;-46
2022/11/25 07:53:49;;;;;;;8.15;1.83;;;;;;;9.08;91.78;101316.41;5064754;28;20063;-44
2022/11/25 07:56:16;;;;;;;6.90;1.67;;;;;;;9.08;91.84;101324.09;5066483;28;20021;-47
2022/11/25 07:58:43;;;;;;;9.13;1.75;;;;;;;9.07;92.02;101320.66;5068111;28;20107;-43
2022/11/25 08:01:11;;;;;;;9.45;2.03;;;;;;;9.03;91.99;101326.47;5064772;28;20373;-48
2022/11/25 08:03:37;;;;;;;7.82;1.80;;;;;;;9.03;91.94;101336.72;5066531;28;20052;-46
2022/11/25 08:06:07;;;;;;;4.32;1.67;;;;;;;8.98;92.22;101343.38;5067719;28;20035;-44
2022/11/25 08:08:34;;;;;;;7.35;2.20;;;;;;;9.01;92.45;101340.94;5067551;28;20476;-46
2022/11/25 08:11:00;;;;;;;8.38;2.30;;;;;;;8.99;92.54;101349.38;5065424;28;20029;-46
2022/11/25 08:13:25;;;;;;;5.60;1.92;;;;;;;9.03;92.41;101359.81;5065208;28;20029;-47
2022/11/25 08:15:50;;;;;;;9.02;2.22;;;;;;;9.04;92.09;101353.91;5064386;28;20045;-46
2022/11/25 08:18:16;;;;;;;6.00;2.05;;;;;;;9.07;92.18;101356.56;5066315;28;20082;-43
2022/11/25 08:20:42;;;;;;;7.40;2.08;;;;;;;9.05;92.12;101357.34;5066948;28;20527;-47
2022/11/25 08:23:07;;;;;;;10.10;1.90;;;;;;;9.03;92.46;101366.63;5064678;28;20398;-46
2022/11/25 08:25:32;;;;;;;9.65;2.20;;;;;;;9.00;92.09;101364.84;5064523;28;20503;-46
2022/11/25 08:27:59;;;;;;;8.35;2.80;;;;;;;9.04;92.28;101368.38;5065694;28;20039;-46
2022/11/25 08:30:25;;;;;;;9.20;2.35;;;;;;;9.03;92.42;101362.38;5066076;28;20012;-45
2022/11/25 08:32:51;;;;;;;8.40;2.17;;;;;;;9.09;92.13;101366.91;5064089;28;20071;-46
2022/11/25 08:35:17;;;;;;;6.18;2.20;;;;;;;9.08;92.38;101366.03;5066572;28;20070;-47
2022/11/25 08:37:43;;;;;;;8.48;2.28;;;;;;;9.09;92.41;101372.03;5069177;28;20036;-48
2022/11/25 08:40:09;;;;;;;10.50;2.33;;;;;;;9.14;92.52;101368.84;5069090;28;20150;-46
2022/11/25 08:42:36;;;;;;;7.38;2.35;;;;;;;9.13;92.59;101377.34;5070162;28;20025;-44
2022/11/25 08:45:02;;;;;;;9.00;2.10;;;;;;;9.19;92.44;101381.00;5068338;28;20020;-45
2022/11/25 08:47:28;;;;;;;10.25;2.40;;;;;;;9.17;92.33;101374.94;5065052;28;20070;-46
2022/11/25 08:49:54;;;;;;;8.27;2.45;;;;;;;9.23;92.55;101377.75;5070928;28;20016;-45
2022/11/25 08:52:20;;;;;;;8.85;2.40;;;;;;;9.26;92.41;101377.88;5066750;28;20107;-45
2022/11/25 08:54:46;;;;;;;7.97;2.40;;;;;;;9.32;92.33;101379.00;5065783;28;20419;-45
2022/11/25 08:57:12;;;;;;;14.57;2.40;;;;;;;9.46;92.27;101386.38;5069313;28;20033;-45
2022/11/25 08:59:39;;;;;;;12.18;2.85;;;;;;;9.51;92.09;101390.88;5071551;28;20081;-45
2022/11/25 09:02:05;;;;;;;10.88;3.05;;;;;;;9.59;91.75;101386.97;5070009;28;20028;-47
2022/11/25 09:04:31;;;;;;;9.15;2.55;;;;;;;9.70;91.17;101391.63;5064773;28;20063;-46
2022/11/25 09:06:56;;;;;;;9.00;2.45;;;;;;;9.73;90.97;101389.19;5061707;28;20128;-47
2022/11/25 09:09:22;;;;;;;8.77;2.28;;;;;;;9.81;91.04;101391.25;5065070;28;20342;-45
2022/11/25 09:11:47;;;;;;;9.27;2.58;;;;;;;9.87;91.00;101400.88;5066990;28;20040;-47
2022/11/25 09:14:13;;;;;;;8.60;2.40;;;;;;;9.90;91.07;101403.59;5064660;28;20460;-44
2022/11/25 09:16:38;;;;;;;6.63;2.38;;;;;;;9.95;90.88;101402.09;5062006;28;20054;-45
2022/11/25 09:19:05;;;;;;;9.35;2.63;;;;;;;10.00;90.67;101407.38;5065220;28;20036;-45
2022/11/25 09:21:31;;;;;;;9.98;2.33;;;;;;;9.99;90.48;101409.06;5065381;28;20495;-47
2022/11/25 09:23:56;;;;;;;8.38;3.22;;;;;;;10.06;90.46;101415.31;5063547;28;20024;-45
2022/11/25 09:26:28;;;;;;;8.80;2.35;;;;;;;10.09;90.18;101413.75;5063730;28;20056;-45
2022/11/25 09:28:54;;;;;;;9.07;2.40;;;;;;;10.14;90.71;101419.97;5064790;28;20032;-48
2022/11/25 09:31:21;;;;;;;9.80;2.70;;;;;;;10.16;90.41;101426.03;5064436;28;20560;-46
2022/11/25 09:33:46;;;;;;;9.68;2.53;;;;;;;10.17;90.61;101432.91;5064463;28;20120;-45
2022/11/25 09:36:14;;;;;;;11.13;2.55;;;;;;;10.23;89.88;101432.31;5061563;28;20107;-47
2022/11/25 09:38:40;;;;;;;9.63;2.58;;;;;;;10.30;89.99;101439.44;5065309;28;20033;-47
2022/11/25 09:41:14;;;;;;;9.32;2.45;;;;;;;10.32;89.92;101445.53;5064887;28;20036;-47
2022/11/25 09:46:57;;;;;;;10.85;2.42;;;;;;;10.49;90.08;101446.13;5064520;28;20110;-48
2022/11/25 09:49:29;;;;;;;10.90;2.60;;;;;;;10.48;89.33;101458.13;5064225;28;20040;-46
2022/11/25 09:52:16;;;;;;;10.32;2.65;;;;;;;10.52;89.68;101455.69;5063740;28;20485;-46
2022/11/25 09:54:47;;;;;;;7.53;2.20;;;;;;;10.54;88.73;101454.91;5063034;28;20033;-45
2022/11/25 09:57:34;;;;;;;8.93;2.13;;;;;;;10.61;89.52;101458.56;5062656;28;20020;-43
2022/11/25 10:00:05;;;;;;;10.93;2.75;;;;;;;10.68;88.75;101466.59;5063248;28;20024;-47
2022/11/25 10:02:41;;;;;;;10.43;2.72;;;;;;;10.70;88.21;101470.09;5064309;28;20041;-47
2022/11/25 10:05:26;;;;;;;7.65;2.10;;;;;;;10.80;87.60;101465.28;5062984;28;20055;-46
2022/11/25 10:07:55;;;;;;;7.90;2.10;;;;;;;10.82;87.55;101469.69;5062170;28;20421;-46
2022/11/25 10:10:29;;;;;;;10.35;2.40;;;;;;;10.85;86.58;101468.91;5063481;28;20027;-45
2022/11/25 10:12:57;;;;;;;8.30;2.65;;;;;;;10.90;86.78;101483.69;5064058;28;20044;-44
2022/11/25 10:15:39;;;;;;;9.77;2.20;;;;;;;10.98;87.00;101484.88;5062139;28;20080;-44
2022/11/25 10:18:30;;;;;;;8.85;2.00;;;;;;;11.17;87.06;101499.25;5062877;28;20036;-47
2022/11/25 10:20:56;;;;;;;10.00;2.53;;;;;;;11.28;85.59;101503.09;5062241;28;20525;-44
2022/11/25 10:23:32;;;;;;;7.53;1.90;;;;;;;11.44;85.08;101506.19;5062400;28;20097;-47
2022/11/25 10:26:01;;;;;;;9.27;2.22;;;;;;;11.61;83.66;101504.19;5063386;28;20093;-44
2022/11/25 10:28:33;;;;;;;14.05;2.50;;;;;;;11.89;83.28;101504.34;5063438;28;20446;-45
2022/11/25 10:30:58;;;;;;;7.85;2.22;;;;;;;12.00;80.97;101507.25;5061462;28;20075;-47
2022/11/25 10:33:31;;;;;;;9.10;2.30;;;;;;;12.22;82.05;101508.81;5064233;28;20039;-46
2022/11/25 10:36:13;;;;;;;11.68;2.75;;;;;;;12.33;81.08;101510.91;5063757;28;20028;-46
2022/11/25 10:38:44;;;;;;;9.13;2.13;;;;;;;12.34;79.76;101520.41;5063282;28;20028;-48
2022/11/25 10:41:17;;;;;;;8.50;2.17;;;;;;;12.39;79.90;101522.25;5063498;28;20021;-42
2022/11/25 10:43:44;;;;;;;9.63;2.33;;;;;;;12.33;79.00;101534.13;5064111;28;20118;-43
2022/11/25 10:46:25;;;;;;;7.72;2.22;;;;;;;12.36;78.64;101533.31;5061141;28;20060;-41
2022/11/25 10:49:14;;;;;;;8.30;2.10;;;;;;;12.41;79.31;101528.31;5063068;28;20031;-42
2022/11/25 10:51:45;;;;;;;11.50;2.40;;;;;;;12.40;78.22;101536.88;5062983;28;20033;-43
2022/11/25 10:54:23;;;;;;;8.85;2.22;;;;;;;12.35;78.22;101541.91;5062931;28;20032;-41
2022/11/25 10:56:48;;;;;;;12.63;2.05;;;;;;;12.25;76.98;101538.13;5062633;28;20469;-45
2022/11/25 10:59:28;;;;;;;5.95;1.80;;;;;;;12.29;78.35;101536.53;5061644;28;20028;-42
2022/11/25 11:02:14;;;;;;;7.85;2.20;;;;;;;12.38;78.33;101541.09;5062859;28;20487;-48
2022/11/25 11:04:55;;;;;;;8.38;2.25;;;;;;;12.37;78.25;101542.81;5062113;28;20032;-44
2022/11/25 11:07:21;;;;;;;11.52;2.63;;;;;;;12.35;76.81;101544.47;5059980;28;20555;-43
2022/11/25 11:09:48;;;;;;;12.00;2.40;;;;;;;12.26;76.21;101551.94;5064183;28;20031;-45
2022/11/25 11:12:26;;;;;;;7.75;2.00;;;;;;;12.30;76.23;101549.47;5063000;28;20028;-44
2022/11/25 11:15:12;;;;;;;7.90;1.92;;;;;;;12.31;75.45;101555.50;5063583;28;20040;-43
2022/11/25 11:17:38;;;;;;;10.93;1.90;;;;;;;12.30;76.61;101557.22;5062484;28;20115;-46
2022/11/25 11:20:05;;;;;;;8.55;2.08;;;;;;;12.33;75.79;101567.66;5060181;28;20178;-44
2022/11/25 11:22:32;;;;;;;13.05;2.45;;;;;;;12.35;76.11;101565.09;5063637;28;20027;-44
2022/11/25 11:25:13;;;;;;;7.43;2.17;;;;;;;12.38;76.25;101577.22;5061603;28;20032;-48
2022/11/25 11:27:39;;;;;;;9.15;2.00;;;;;;;12.34;76.43;101577.13;5061891;28;20039;-44
2022/11/25 11:30:09;;;;;;;9.70;2.20;;;;;;;12.43;75.40;101580.81;5066810;28;20024;-44
2022/11/25 11:32:34;;;;;;;9.52;2.00;;;;;;;12.36;75.96;101577.16;5068437;28;20500;-44
2022/11/25 11:35:12;;;;;;;7.45;2.10;;;;;;;12.43;76.23;101580.81;5067740;28;20032;-44
2022/11/25 11:37:44;;;;;;;9.68;2.40;;;;;;;12.42;75.82;101585.09;5067398;28;20499;-44